Time;durP1;ratioP1;P1;durP2;ratioP2;P2;SDS_P1;SDS_P2;PMS_P1;PMS_P2;Temp;Humidity;BMP_temperature;BMP_pressure;BME280_temperature;BME280_humidity;BME280_pressure;Samples;Min_cycle;Max_cycle;Signal;HPM_P1;HPM_P2
2022/07/21 00:01:36;;;;;;;6.53;5.32;;;21.00;99.90;;;;;;6335467;28;20605;-66
2022/07/21 00:04:41;;;;;;;6.43;5.03;;;20.90;99.90;;;;;;6329907;28;20258;-67
2022/07/21 00:07:48;;;;;;;7.07;5.22;;;21.00;99.90;;;;;;6310695;28;20291;-67
2022/07/21 00:10:54;;;;;;;6.50;5.90;;;20.90;99.90;;;;;;6310844;28;20277;-67
2022/07/21 00:14:00;;;;;;;6.18;5.22;;;20.90;99.90;;;;;;6310278;28;20449;-67
2022/07/21 00:17:05;;;;;;;5.63;5.22;;;20.70;99.90;;;;;;6310419;28;20270;-66
2022/07/21 00:20:15;;;;;;;6.35;5.78;;;20.70;99.90;;;;;;6310660;28;20270;-66
2022/07/21 00:23:20;;;;;;;7.32;5.13;;;20.70;99.90;;;;;;6309757;28;20263;-66
2022/07/21 00:26:29;;;;;;;5.38;4.90;;;20.60;99.90;;;;;;6310329;28;20271;-66
2022/07/21 00:29:34;;;;;;;6.15;5.15;;;20.60;99.90;;;;;;6310689;28;20271;-66
2022/07/21 00:32:39;;;;;;;10.00;5.47;;;20.50;99.90;;;;;;6310470;28;20279;-66
2022/07/21 00:35:44;;;;;;;6.88;5.15;;;20.50;99.90;;;;;;6308346;28;20296;-66
2022/07/21 00:38:50;;;;;;;5.40;4.93;;;20.40;99.90;;;;;;6306362;28;20293;-66
2022/07/21 00:41:57;;;;;;;5.60;5.10;;;20.40;99.90;;;;;;6310270;28;20290;-67
2022/07/21 00:45:04;;;;;;;7.78;5.40;;;20.30;99.90;;;;;;6310418;28;20276;-67
2022/07/21 00:48:15;;;;;;;8.48;5.28;;;20.30;99.90;;;;;;6309504;28;20270;-66
2022/07/21 00:51:21;;;;;;;6.80;5.50;;;20.30;99.90;;;;;;6310054;28;20310;-67
2022/07/21 00:54:26;;;;;;;6.85;5.68;;;20.30;99.90;;;;;;6314696;28;20270;-67
2022/07/21 00:57:33;;;;;;;9.73;5.57;;;20.30;99.90;;;;;;6313917;28;20266;-67
2022/07/21 01:00:39;;;;;;;5.32;4.95;;;20.30;99.90;;;;;;6314266;28;20270;-67
2022/07/21 01:03:45;;;;;;;8.80;5.70;;;20.20;99.90;;;;;;6314414;28;20286;-67
2022/07/21 01:06:50;;;;;;;6.32;5.15;;;20.20;99.90;;;;;;6338371;28;20266;-67
2022/07/21 01:09:57;;;;;;;11.63;5.53;;;20.20;99.90;;;;;;6339451;28;20286;-67
2022/07/21 01:13:03;;;;;;;6.90;5.63;;;20.30;99.90;;;;;;6339454;28;20270;-67
2022/07/21 01:16:12;;;;;;;6.80;5.28;;;20.30;99.90;;;;;;6339346;28;20270;-66
2022/07/21 01:19:17;;;;;;;10.80;5.38;;;20.20;99.90;;;;;;6339283;28;20270;-67
2022/07/21 01:22:24;;;;;;;5.47;5.13;;;20.20;99.90;;;;;;6339354;28;20286;-67
2022/07/21 01:25:29;;;;;;;6.05;5.53;;;20.20;99.90;;;;;;6338974;28;20270;-67
2022/07/21 01:28:36;;;;;;;5.57;5.10;;;20.20;99.90;;;;;;6339265;28;20270;-67
2022/07/21 01:31:43;;;;;;;7.68;4.97;;;20.10;99.90;;;;;;6338519;28;20273;-67
2022/07/21 01:34:49;;;;;;;5.80;5.30;;;20.10;99.90;;;;;;6338920;28;20286;-67
2022/07/21 01:37:56;;;;;;;5.68;5.28;;;20.10;99.90;;;;;;6338650;28;20297;-67
2022/07/21 01:44:24;;;;;;;6.10;4.68;;;20.10;99.90;;;;;;6338192;28;20274;-67
2022/07/21 01:47:30;;;;;;;7.13;5.22;;;20.10;99.90;;;;;;6338870;28;20273;-66
2022/07/21 01:50:35;;;;;;;5.93;5.35;;;20.00;99.90;;;;;;6338319;28;20270;-67
2022/07/21 01:53:42;;;;;;;5.22;4.80;;;20.00;99.90;;;;;;6337711;28;20274;-67
2022/07/21 01:56:48;;;;;;;7.90;4.80;;;20.00;99.90;;;;;;6338538;28;20546;-67
2022/07/21 01:59:53;;;;;;;6.25;4.95;;;20.00;99.90;;;;;;6338612;28;20269;-67
2022/07/21 02:02:58;;;;;;;6.78;5.45;;;20.00;99.90;;;;;;6338341;28;20289;-67
2022/07/21 02:06:05;;;;;;;13.45;5.90;;;19.90;99.90;;;;;;6337475;28;20261;-67
2022/07/21 02:09:12;;;;;;;13.02;6.00;;;19.90;99.90;;;;;;6337710;28;20269;-67
2022/07/21 02:12:17;;;;;;;11.98;5.57;;;19.90;99.90;;;;;;6337454;28;20273;-67
2022/07/21 02:15:23;;;;;;;6.93;5.70;;;19.90;99.90;;;;;;6337966;28;20270;-67
2022/07/21 02:18:28;;;;;;;19.40;6.45;;;19.80;99.90;;;;;;6337841;28;20265;-66
2022/07/21 02:21:33;;;;;;;8.38;6.18;;;19.80;99.90;;;;;;6337976;28;20270;-67
2022/07/21 02:24:40;;;;;;;6.53;5.53;;;19.70;99.90;;;;;;6337647;28;20596;-67
2022/07/21 02:27:47;;;;;;;11.32;5.90;;;19.70;99.90;;;;;;6337359;28;20274;-66
2022/07/21 02:30:54;;;;;;;5.85;5.45;;;19.70;99.90;;;;;;6337512;28;20269;-67
2022/07/21 02:33:59;;;;;;;6.38;5.55;;;19.70;99.90;;;;;;6337362;28;20274;-66
2022/07/21 02:37:05;;;;;;;7.40;5.28;;;19.70;99.90;;;;;;6330495;28;20295;-67
2022/07/21 02:40:12;;;;;;;6.47;5.78;;;19.60;99.90;;;;;;6311944;28;20267;-66
2022/07/21 02:43:18;;;;;;;9.05;6.10;;;19.60;99.90;;;;;;6311815;28;20282;-66
2022/07/21 02:46:23;;;;;;;11.95;6.35;;;19.60;99.90;;;;;;6311841;28;20270;-67
2022/07/21 02:49:29;;;;;;;6.57;5.95;;;19.60;99.90;;;;;;6311710;28;20334;-66
2022/07/21 02:52:34;;;;;;;8.13;5.75;;;19.60;99.90;;;;;;6303654;28;20270;-67
2022/07/21 02:55:44;;;;;;;8.88;6.15;;;19.60;99.90;;;;;;6311728;28;20270;-67
2022/07/21 02:58:49;;;;;;;6.65;6.05;;;19.50;99.90;;;;;;6311283;28;20270;-66
2022/07/21 03:01:56;;;;;;;11.25;5.80;;;19.50;99.90;;;;;;6311810;28;20290;-66
2022/07/21 03:05:01;;;;;;;8.45;6.15;;;19.60;99.90;;;;;;6311438;28;20284;-66
2022/07/21 03:08:08;;;;;;;8.65;6.35;;;19.50;99.90;;;;;;6311581;28;20296;-66
2022/07/21 03:11:15;;;;;;;6.65;5.95;;;19.50;99.90;;;;;;6311494;28;20270;-67
2022/07/21 03:14:20;;;;;;;10.38;6.10;;;19.50;99.90;;;;;;6310944;28;20274;-67
2022/07/21 03:17:26;;;;;;;7.47;6.20;;;19.50;99.90;;;;;;6309961;28;20274;-66
2022/07/21 03:20:34;;;;;;;6.82;6.07;;;19.60;99.90;;;;;;6311285;28;20269;-66
2022/07/21 03:23:39;;;;;;;6.85;6.00;;;19.60;99.90;;;;;;6311082;28;20287;-66
2022/07/21 03:26:46;;;;;;;6.72;5.20;;;19.60;99.90;;;;;;6311015;28;20282;-66
2022/07/21 03:29:51;;;;;;;5.95;5.40;;;19.60;99.90;;;;;;6310649;28;20270;-66
2022/07/21 03:32:57;;;;;;;7.03;5.65;;;19.60;99.90;;;;;;6310992;28;20297;-67
2022/07/21 03:36:03;;;;;;;5.80;5.32;;;19.70;99.90;;;;;;6311136;28;20286;-66
2022/07/21 03:39:08;;;;;;;6.13;5.55;;;19.70;99.90;;;;;;6332907;28;20297;-67
2022/07/21 03:42:15;;;;;;;5.95;5.53;;;19.70;99.90;;;;;;6335780;28;20270;-66
2022/07/21 03:45:21;;;;;;;9.73;5.70;;;19.70;99.90;;;;;;6335439;28;20293;-67
2022/07/21 03:48:27;;;;;;;5.55;5.13;;;19.80;99.90;;;;;;6335713;28;20266;-66
2022/07/21 03:51:32;;;;;;;5.40;5.10;;;19.80;99.90;;;;;;6335498;28;20270;-66
2022/07/21 03:54:37;;;;;;;7.70;5.75;;;19.80;99.90;;;;;;6335354;28;20569;-66
2022/07/21 03:57:46;;;;;;;6.05;5.47;;;19.80;99.90;;;;;;6335602;28;20271;-67
2022/07/21 04:00:51;;;;;;;6.20;5.70;;;19.80;99.90;;;;;;6335523;28;20269;-66
2022/07/21 04:03:57;;;;;;;6.28;5.68;;;19.90;99.90;;;;;;6335249;28;20289;-66
2022/07/21 04:07:02;;;;;;;6.63;5.38;;;19.90;99.90;;;;;;6306320;28;20452;-67
2022/07/21 04:10:10;;;;;;;11.75;6.30;;;20.00;99.90;;;;;;6310311;28;20269;-67
2022/07/21 04:13:17;;;;;;;9.18;5.68;;;20.00;99.90;;;;;;6310132;28;20275;-66
2022/07/21 04:16:30;;;;;;;6.68;5.43;;;20.10;99.90;;;;;;6310072;28;20270;-67
2022/07/21 04:19:35;;;;;;;6.90;5.45;;;20.10;99.90;;;;;;6310398;28;20443;-66
2022/07/21 04:22:41;;;;;;;5.70;5.15;;;20.10;99.90;;;;;;6310000;28;20270;-67
2022/07/21 04:25:46;;;;;;;6.18;5.20;;;20.20;99.90;;;;;;6310433;28;20581;-67
2022/07/21 04:28:53;;;;;;;7.97;5.32;;;20.20;99.90;;;;;;6314156;28;20275;-67
2022/07/21 04:31:59;;;;;;;9.45;5.50;;;20.30;99.90;;;;;;6315053;28;20266;-67
2022/07/21 04:35:05;;;;;;;5.97;5.38;;;20.30;99.90;;;;;;6315441;28;20286;-67
2022/07/21 04:38:14;;;;;;;9.52;5.30;;;20.30;99.90;;;;;;6292373;28;20610;-67
2022/07/21 04:41:19;;;;;;;9.48;5.90;;;20.30;99.90;;;;;;6289958;28;20571;-67
2022/07/21 04:44:26;;;;;;;13.23;5.53;;;20.40;99.90;;;;;;6290109;28;20291;-67
2022/07/21 04:47:32;;;;;;;6.25;5.68;;;20.50;99.90;;;;;;6290275;28;20271;-67
2022/07/21 04:50:37;;;;;;;6.45;5.22;;;20.50;99.90;;;;;;6289630;28;20271;-67
2022/07/21 04:53:42;;;;;;;5.72;5.22;;;20.60;99.90;;;;;;6289542;28;20283;-67
2022/07/21 04:56:48;;;;;;;6.28;5.57;;;20.60;99.90;;;;;;6289807;28;20275;-66
2022/07/21 04:59:54;;;;;;;7.28;5.90;;;20.70;99.90;;;;;;6289883;28;20271;-66
2022/07/21 05:03:00;;;;;;;6.03;5.60;;;20.70;99.90;;;;;;6289202;28;20279;-66
2022/07/21 05:06:05;;;;;;;5.20;4.80;;;20.80;99.90;;;;;;6306536;28;20610;-68
2022/07/21 05:09:11;;;;;;;5.65;5.15;;;20.90;99.90;;;;;;6313969;28;20275;-66
2022/07/21 05:12:17;;;;;;;6.20;5.57;;;21.00;99.90;;;;;;6313648;28;20290;-66
2022/07/21 05:15:23;;;;;;;6.15;5.55;;;21.00;99.90;;;;;;6314464;28;20298;-66
2022/07/21 05:18:28;;;;;;;7.50;5.53;;;21.10;99.90;;;;;;6314291;28;20270;-67
2022/07/21 05:21:34;;;;;;;6.20;5.50;;;21.10;99.90;;;;;;6313722;28;20271;-67
2022/07/21 05:24:39;;;;;;;7.32;5.72;;;21.20;99.90;;;;;;6313936;28;20462;-66
2022/07/21 05:27:45;;;;;;;8.20;6.07;;;21.30;99.90;;;;;;6313748;28;20270;-66
2022/07/21 05:30:51;;;;;;;6.45;5.95;;;21.40;99.90;;;;;;6313410;28;20274;-66
2022/07/21 05:33:56;;;;;;;7.30;5.90;;;21.50;99.90;;;;;;6313471;28;20553;-66
2022/07/21 05:37:02;;;;;;;7.55;5.97;;;21.60;99.90;;;;;;6313576;28;20298;-66
2022/07/21 05:40:11;;;;;;;7.15;6.55;;;21.60;99.90;;;;;;6312684;28;20270;-66
2022/07/21 05:43:17;;;;;;;7.22;5.93;;;21.80;99.90;;;;;;6313594;28;20267;-67
2022/07/21 05:46:24;;;;;;;6.72;6.22;;;22.00;99.90;;;;;;6313360;28;20291;-66
2022/07/21 05:49:29;;;;;;;6.65;6.07;;;22.10;99.90;;;;;;6313280;28;20270;-66
2022/07/21 05:52:34;;;;;;;6.47;6.05;;;22.30;99.90;;;;;;6313206;28;20270;-66
2022/07/21 05:55:40;;;;;;;6.47;6.07;;;22.50;99.90;;;;;;6313206;28;20279;-66
2022/07/21 05:58:45;;;;;;;6.78;6.15;;;22.60;99.90;;;;;;6313294;28;20274;-66
2022/07/21 06:01:52;;;;;;;8.85;6.07;;;22.80;99.90;;;;;;6313172;28;20275;-66
2022/07/21 06:04:58;;;;;;;7.03;6.35;;;22.90;99.90;;;;;;6294827;28;20267;-66
2022/07/21 06:08:03;;;;;;;6.70;6.20;;;23.10;99.90;;;;;;6312709;28;20578;-67
2022/07/21 06:11:11;;;;;;;9.50;6.22;;;23.20;99.90;;;;;;6312305;28;20586;-67
2022/07/21 06:14:17;;;;;;;7.30;6.70;;;23.40;99.90;;;;;;6312407;28;20266;-66
2022/07/21 06:17:24;;;;;;;7.30;6.70;;;23.60;99.90;;;;;;6312432;28;20278;-67
2022/07/21 06:20:29;;;;;;;7.28;6.45;;;23.70;99.90;;;;;;6312249;28;20291;-67
2022/07/21 06:23:34;;;;;;;6.68;6.28;;;23.90;99.90;;;;;;6312207;28;20270;-67
2022/07/21 06:26:40;;;;;;;8.32;6.13;;;24.00;99.90;;;;;;6311976;28;20600;-67
2022/07/21 06:29:45;;;;;;;6.90;6.50;;;24.10;99.90;;;;;;6312422;28;20275;-67
2022/07/21 06:32:52;;;;;;;6.57;6.18;;;24.30;99.90;;;;;;6312389;28;20270;-66
2022/07/21 06:35:58;;;;;;;7.50;6.60;;;24.40;99.90;;;;;;6311725;28;20431;-67
2022/07/21 06:39:04;;;;;;;7.60;6.90;;;24.50;99.90;;;;;;6335114;28;20301;-67
2022/07/21 06:42:10;;;;;;;9.23;6.43;;;24.60;99.90;;;;;;6337303;28;20265;-66
2022/07/21 06:45:15;;;;;;;7.50;6.60;;;24.80;99.90;;;;;;6336720;28;20269;-67
2022/07/21 06:48:22;;;;;;;10.77;6.47;;;24.90;99.90;;;;;;6337245;28;20269;-67
2022/07/21 06:51:28;;;;;;;7.18;6.50;;;25.00;99.90;;;;;;6336998;28;20274;-67
2022/07/21 06:54:33;;;;;;;6.95;6.47;;;25.10;99.90;;;;;;6336684;28;20274;-67
2022/07/21 06:57:39;;;;;;;10.32;6.65;;;25.20;99.40;;;;;;6336764;28;20273;-67
2022/07/21 07:00:44;;;;;;;10.05;7.15;;;25.30;99.60;;;;;;6336909;28;20273;-66
2022/07/21 07:03:51;;;;;;;8.93;6.90;;;25.50;98.90;;;;;;6336246;28;20269;-67
2022/07/21 07:06:56;;;;;;;8.93;6.70;;;25.60;98.00;;;;;;6336676;28;20290;-68
2022/07/21 07:10:02;;;;;;;9.73;6.72;;;25.70;97.90;;;;;;6336768;28;20269;-68
2022/07/21 07:13:08;;;;;;;7.32;6.88;;;25.70;98.60;;;;;;6336554;28;20269;-68
2022/07/21 07:16:34;;;;;;;8.02;6.63;;;25.80;98.30;;;;;;6328228;28;20279;-67
2022/07/21 07:19:40;;;;;;;7.13;6.53;;;26.00;97.80;;;;;;6336482;28;20274;-67
2022/07/21 07:22:45;;;;;;;7.20;6.70;;;26.00;97.60;;;;;;6336378;28;20274;-67
2022/07/21 07:25:51;;;;;;;7.13;6.60;;;26.20;97.70;;;;;;6336196;28;20570;-67
2022/07/21 07:28:56;;;;;;;8.35;6.93;;;26.30;98.00;;;;;;6336060;28;20447;-67
2022/07/21 07:32:02;;;;;;;12.20;6.93;;;26.40;98.00;;;;;;6335882;28;20274;-67
2022/07/21 07:35:11;;;;;;;13.13;7.55;;;26.50;97.20;;;;;;6336135;28;20274;-67
2022/07/21 07:38:17;;;;;;;7.50;7.00;;;26.60;96.90;;;;;;6335542;28;20302;-67
2022/07/21 07:41:24;;;;;;;8.38;7.10;;;26.70;97.10;;;;;;6336208;28;20274;-67
2022/07/21 07:44:30;;;;;;;7.72;7.00;;;26.80;96.90;;;;;;6335925;28;20265;-67
2022/07/21 07:47:35;;;;;;;7.75;6.80;;;26.90;96.50;;;;;;6335524;28;20289;-67
2022/07/21 07:50:42;;;;;;;7.53;6.72;;;27.00;95.70;;;;;;6335795;28;20270;-67
2022/07/21 07:53:47;;;;;;;7.70;7.10;;;27.10;95.90;;;;;;6335279;28;20472;-68
2022/07/21 07:56:53;;;;;;;7.07;6.43;;;27.20;95.60;;;;;;6335577;28;20317;-68
2022/07/21 07:59:58;;;;;;;7.80;7.15;;;27.30;96.10;;;;;;6335589;28;20269;-68
2022/07/21 08:03:03;;;;;;;9.45;7.30;;;27.30;95.50;;;;;;6334794;28;20479;-68
2022/07/21 08:06:10;;;;;;;8.60;6.35;;;27.40;95.80;;;;;;6322517;28;20266;-67
2022/07/21 08:09:17;;;;;;;8.45;7.40;;;27.60;94.50;;;;;;6335112;28;20293;-67
2022/07/21 08:12:23;;;;;;;10.38;7.47;;;27.60;95.10;;;;;;6335011;28;20278;-67
2022/07/21 08:15:28;;;;;;;8.10;6.50;;;27.70;94.60;;;;;;6335083;28;20269;-67
2022/07/21 08:18:33;;;;;;;9.27;6.70;;;27.70;94.60;;;;;;6335262;28;20274;-67
2022/07/21 08:21:40;;;;;;;9.18;6.97;;;27.80;94.50;;;;;;6335445;28;20274;-67
2022/07/21 08:25:06;;;;;;;6.78;6.13;;;27.90;93.90;;;;;;6335276;28;20274;-67
2022/07/21 08:28:14;;;;;;;7.20;6.50;;;28.00;93.60;;;;;;6334557;28;20309;-67
2022/07/21 08:31:19;;;;;;;11.90;7.22;;;28.00;93.70;;;;;;6335026;28;20270;-67
2022/07/21 08:34:25;;;;;;;7.93;6.95;;;28.10;93.20;;;;;;6335041;28;20510;-67
2022/07/21 08:37:31;;;;;;;15.80;7.18;;;28.20;92.30;;;;;;6334510;28;20581;-68
2022/07/21 08:40:43;;;;;;;12.15;6.13;;;28.30;91.30;;;;;;6335285;28;20270;-67
2022/07/21 08:43:50;;;;;;;8.00;6.63;;;28.30;92.20;;;;;;6334410;28;20270;-67
2022/07/21 08:46:56;;;;;;;7.07;6.47;;;28.30;91.50;;;;;;6334863;28;20274;-67
2022/07/21 08:50:02;;;;;;;7.18;6.47;;;28.30;91.20;;;;;;6335068;28;20573;-68
2022/07/21 08:53:09;;;;;;;6.95;6.35;;;28.30;90.00;;;;;;6334867;28;20561;-67
2022/07/21 08:56:14;;;;;;;7.90;6.95;;;28.40;90.70;;;;;;6334873;28;20265;-67
2022/07/21 08:59:20;;;;;;;7.70;6.68;;;28.30;89.60;;;;;;6334770;28;20273;-67
2022/07/21 09:02:35;;;;;;;6.90;6.47;;;28.40;90.10;;;;;;6334457;28;20269;-67
2022/07/21 09:05:41;;;;;;;8.13;6.65;;;28.40;90.30;;;;;;6320796;28;20447;-68
2022/07/21 09:08:50;;;;;;;6.30;6.00;;;28.50;88.80;;;;;;6309558;28;20547;-68
2022/07/21 09:11:57;;;;;;;6.68;6.10;;;28.50;86.90;;;;;;6309665;28;20267;-68
2022/07/21 09:15:14;;;;;;;6.82;6.43;;;28.60;86.00;;;;;;6312152;28;20266;-67
2022/07/21 09:18:19;;;;;;;6.55;6.15;;;28.70;86.70;;;;;;6314255;28;20294;-68
2022/07/21 09:21:28;;;;;;;8.20;6.35;;;28.70;86.70;;;;;;6313688;28;20270;-68
2022/07/21 09:24:39;;;;;;;11.65;6.53;;;28.70;85.60;;;;;;6313771;28;20266;-67
2022/07/21 09:27:44;;;;;;;6.65;6.20;;;28.90;87.80;;;;;;6313927;28;20456;-66
2022/07/21 09:30:57;;;;;;;6.70;6.05;;;28.90;87.40;;;;;;6313562;28;20314;-66
2022/07/21 09:34:03;;;;;;;9.13;6.68;;;28.90;88.00;;;;;;6313450;28;20266;-66
2022/07/21 09:37:09;;;;;;;9.93;6.80;;;28.90;89.20;;;;;;6320235;28;20298;-66
2022/07/21 09:40:17;;;;;;;12.20;7.10;;;28.90;89.10;;;;;;6338333;28;20274;-68
2022/07/21 09:43:42;;;;;;;7.20;6.50;;;29.10;88.90;;;;;;6338579;28;20266;-68
2022/07/21 09:46:47;;;;;;;8.70;6.35;;;29.20;87.20;;;;;;6338234;28;20554;-68
2022/07/21 09:49:53;;;;;;;7.68;6.80;;;29.20;88.00;;;;;;6338319;28;20476;-68
2022/07/21 09:53:18;;;;;;;6.40;5.88;;;29.20;87.60;;;;;;6338497;28;20266;-68
2022/07/21 09:56:26;;;;;;;6.53;5.85;;;29.20;85.10;;;;;;6338337;28;20270;-67
2022/07/21 09:59:31;;;;;;;6.85;6.15;;;29.30;85.10;;;;;;6338102;28;20274;-66
2022/07/21 10:02:57;;;;;;;9.43;5.95;;;29.30;83.80;;;;;;6337770;28;20266;-67
2022/07/21 10:06:02;;;;;;;7.60;5.93;;;29.30;84.00;;;;;;6338081;28;20261;-67
2022/07/21 10:09:10;;;;;;;8.68;6.00;;;29.40;83.80;;;;;;6338012;28;20289;-67
2022/07/21 10:12:18;;;;;;;7.68;6.22;;;29.40;84.40;;;;;;6319755;28;20274;-67
2022/07/21 10:15:24;;;;;;;6.78;6.20;;;29.40;82.90;;;;;;6337685;28;20275;-67
2022/07/21 10:18:34;;;;;;;8.98;6.10;;;29.40;83.70;;;;;;6337649;28;20560;-67
2022/07/21 10:21:45;;;;;;;5.82;5.57;;;29.50;81.60;;;;;;6337536;28;20274;-67
2022/07/21 10:24:52;;;;;;;7.20;5.95;;;29.60;80.00;;;;;;6336989;28;20270;-67
2022/07/21 10:28:18;;;;;;;7.57;5.78;;;29.60;78.50;;;;;;6319999;28;20440;-68
2022/07/21 10:31:27;;;;;;;8.35;5.47;;;29.70;78.80;;;;;;6337461;28;20265;-67
2022/07/21 10:34:36;;;;;;;6.75;6.10;;;29.70;77.50;;;;;;6328559;28;20380;-67
2022/07/21 10:37:48;;;;;;;6.55;5.97;;;29.60;78.00;;;;;;6336937;28;20476;-67
2022/07/21 10:40:54;;;;;;;6.13;5.60;;;29.60;77.80;;;;;;6337277;28;20282;-67
2022/07/21 10:44:56;;;;;;;6.05;5.45;;;29.60;78.00;;;;;;6336658;28;20270;-67
2022/07/21 10:48:03;;;;;;;6.20;5.63;;;29.70;75.70;;;;;;6337063;28;20278;-67
2022/07/21 10:51:13;;;;;;;6.07;5.68;;;29.80;73.60;;;;;;6337005;28;20294;-67
2022/07/21 10:54:25;;;;;;;6.07;5.18;;;29.90;72.80;;;;;;6336730;28;20554;-67
2022/07/21 10:57:30;;;;;;;7.13;5.68;;;29.90;71.50;;;;;;6336844;28;20269;-67
2022/07/21 11:00:37;;;;;;;7.07;5.72;;;29.90;71.60;;;;;;6336248;28;20277;-67
2022/07/21 11:03:45;;;;;;;5.25;4.90;;;30.00;70.90;;;;;;6336876;28;20266;-68
2022/07/21 11:06:51;;;;;;;5.50;5.20;;;30.00;71.60;;;;;;6336405;28;20266;-67
2022/07/21 11:10:15;;;;;;;5.68;5.18;;;30.10;70.10;;;;;;6336695;28;20293;-67
2022/07/21 11:13:25;;;;;;;6.10;5.47;;;30.00;70.70;;;;;;6336284;28;20275;-67
2022/07/21 11:17:02;;;;;;;6.10;5.50;;;30.10;69.20;;;;;;6336199;28;20265;-67
2022/07/21 11:20:15;;;;;;;12.48;5.68;;;30.10;69.50;;;;;;6317264;28;20273;-66
2022/07/21 11:23:20;;;;;;;6.15;5.65;;;30.20;69.10;;;;;;6335871;28;20479;-67
2022/07/21 11:26:27;;;;;;;6.38;5.70;;;30.20;68.80;;;;;;6336128;28;20269;-67
2022/07/21 11:29:33;;;;;;;6.18;5.68;;;30.20;69.40;;;;;;6336165;28;20289;-67
2022/07/21 11:32:40;;;;;;;8.50;5.22;;;30.30;69.40;;;;;;6336289;28;20318;-67
2022/07/21 11:35:45;;;;;;;8.90;5.88;;;30.40;68.10;;;;;;6335210;28;20281;-67
2022/07/21 11:39:06;;;;;;;6.70;5.97;;;30.50;69.30;;;;;;6334877;28;20297;-67
2022/07/21 11:42:15;;;;;;;9.48;5.68;;;30.50;68.70;;;;;;6335793;28;20468;-68
2022/07/21 11:45:25;;;;;;;6.97;5.38;;;30.70;66.20;;;;;;6335440;28;20269;-68
2022/07/21 11:48:34;;;;;;;5.95;5.43;;;30.70;64.50;;;;;;6335746;28;20285;-68
2022/07/21 11:51:48;;;;;;;6.82;5.30;;;30.70;60.90;;;;;;6335565;28;20290;-67
2022/07/21 11:54:55;;;;;;;7.75;5.35;;;30.80;59.10;;;;;;6335327;28;20269;-68
2022/07/21 11:58:01;;;;;;;8.18;5.78;;;30.90;59.80;;;;;;6335482;28;20466;-68
2022/07/21 12:01:08;;;;;;;6.22;5.38;;;31.00;58.90;;;;;;6335554;28;20278;-67
2022/07/21 12:04:28;;;;;;;7.20;5.00;;;31.00;58.70;;;;;;6333041;28;20273;-67
2022/07/21 12:07:37;;;;;;;6.45;5.20;;;31.10;56.70;;;;;;6327536;28;20274;-68
2022/07/21 12:10:42;;;;;;;8.48;4.97;;;31.10;57.40;;;;;;6335048;28;20282;-68
2022/07/21 12:14:00;;;;;;;8.90;5.53;;;31.20;56.60;;;;;;6335178;28;20549;-68
2022/07/21 12:17:06;;;;;;;6.80;4.90;;;31.30;56.30;;;;;;6335682;28;20266;-68
2022/07/21 12:20:15;;;;;;;5.95;5.30;;;31.30;56.40;;;;;;6335019;28;20277;-68
2022/07/21 12:23:26;;;;;;;6.00;5.20;;;31.40;56.90;;;;;;6335401;28;20422;-66
2022/07/21 12:26:33;;;;;;;7.82;4.75;;;31.50;55.10;;;;;;6335533;28;20266;-68
2022/07/21 12:29:38;;;;;;;6.40;4.68;;;31.50;54.50;;;;;;6335154;28;20270;-67
2022/07/21 12:32:49;;;;;;;6.40;4.22;;;31.50;53.80;;;;;;6334568;28;20592;-67
2022/07/21 12:36:03;;;;;;;8.88;4.25;;;31.50;50.50;;;;;;6334852;28;20270;-67
2022/07/21 12:39:55;;;;;;;4.25;3.95;;;31.60;50.50;;;;;;6311670;28;20294;-68
2022/07/21 12:42:42;;;;;;;5.20;3.80;;;31.70;49.30;;;;;;6309536;28;20274;-68
2022/07/21 12:45:52;;;;;;;8.35;3.78;;;31.70;48.70;;;;;;6310021;28;20464;-68
2022/07/21 12:49:05;;;;;;;3.85;3.45;;;31.70;46.50;;;;;;6311778;28;20274;-67
2022/07/21 12:52:18;;;;;;;4.38;3.40;;;31.80;46.40;;;;;;6314329;28;20311;-67
2022/07/21 12:55:23;;;;;;;8.43;3.55;;;31.80;42.80;;;;;;6314888;28;20464;-68
2022/07/21 12:58:29;;;;;;;6.45;3.38;;;31.90;43.80;;;;;;6314293;28;20274;-67
2022/07/21 13:01:35;;;;;;;3.72;3.42;;;31.90;45.40;;;;;;6313913;28;20274;-67
2022/07/21 13:04:41;;;;;;;3.08;2.97;;;31.90;41.10;;;;;;6314301;28;20258;-66
2022/07/21 13:07:47;;;;;;;3.13;2.92;;;32.00;41.90;;;;;;6314256;28;20270;-67
2022/07/21 13:10:53;;;;;;;4.00;3.58;;;32.00;41.10;;;;;;6313561;28;20294;-67
2022/07/21 13:14:02;;;;;;;3.55;3.25;;;32.00;41.20;;;;;;6313882;28;20270;-67
2022/07/21 13:17:08;;;;;;;4.03;3.53;;;32.10;40.60;;;;;;6314036;28;20270;-67
2022/07/21 13:20:14;;;;;;;5.22;3.90;;;32.10;44.20;;;;;;6314273;28;20270;-67
2022/07/21 13:23:22;;;;;;;3.80;3.65;;;32.20;44.80;;;;;;6313832;28;20274;-67
2022/07/21 13:26:28;;;;;;;6.07;3.90;;;32.20;44.00;;;;;;6313944;28;20281;-67
2022/07/21 13:29:33;;;;;;;6.95;4.00;;;32.30;44.90;;;;;;6313883;28;20545;-67
2022/07/21 13:32:39;;;;;;;6.18;4.70;;;32.30;46.20;;;;;;6313817;28;20294;-67
2022/07/21 13:35:45;;;;;;;7.28;4.43;;;32.30;46.90;;;;;;6313758;28;20270;-67
2022/07/21 13:38:51;;;;;;;4.28;3.97;;;32.40;47.70;;;;;;6332561;28;20301;-68
2022/07/21 13:42:16;;;;;;;6.10;4.55;;;32.40;47.50;;;;;;6338944;28;20277;-68
2022/07/21 13:45:42;;;;;;;8.90;4.28;;;33.20;46.20;;;;;;6338213;28;20274;-68
2022/07/21 13:48:48;;;;;;;6.13;4.78;;;34.10;45.90;;;;;;6338438;28;20273;-68
2022/07/21 13:51:53;;;;;;;5.32;4.93;;;34.60;44.20;;;;;;6338261;28;20456;-67
2022/07/21 13:54:59;;;;;;;7.32;4.90;;;34.30;44.80;;;;;;6338619;28;20274;-68
2022/07/21 13:58:06;;;;;;;8.27;4.82;;;33.90;46.40;;;;;;6338453;28;20301;-68
2022/07/21 14:01:14;;;;;;;11.23;5.10;;;33.70;47.40;;;;;;6337056;28;20269;-68
2022/07/21 14:04:19;;;;;;;7.00;5.18;;;33.50;49.50;;;;;;6335469;28;20534;-68
2022/07/21 14:07:25;;;;;;;6.53;5.55;;;33.20;48.30;;;;;;6313339;28;20270;-68
2022/07/21 14:10:33;;;;;;;6.32;5.60;;;33.10;47.30;;;;;;6312435;28;20461;-68
2022/07/21 14:13:38;;;;;;;6.68;6.15;;;33.00;47.90;;;;;;6312827;28;20306;-68
2022/07/21 14:16:43;;;;;;;8.13;6.00;;;32.70;49.00;;;;;;6312348;28;20338;-68
2022/07/21 14:19:49;;;;;;;6.30;5.80;;;32.70;48.70;;;;;;6312596;28;20269;-66
2022/07/21 14:22:55;;;;;;;9.38;6.10;;;32.70;48.60;;;;;;6312646;28;20273;-67
2022/07/21 14:26:02;;;;;;;7.13;6.68;;;32.50;49.60;;;;;;6312615;28;20270;-67
2022/07/21 14:29:08;;;;;;;14.32;7.22;;;32.40;50.20;;;;;;6312576;28;20270;-67
2022/07/21 14:32:16;;;;;;;11.20;6.82;;;32.20;50.80;;;;;;6312375;28;20295;-67
2022/07/21 14:35:22;;;;;;;8.30;7.65;;;32.10;52.40;;;;;;6312335;28;20269;-68
2022/07/21 14:38:27;;;;;;;8.63;7.10;;;32.00;54.30;;;;;;6327646;28;20297;-67
2022/07/21 14:41:34;;;;;;;7.85;7.10;;;32.00;54.00;;;;;;6337229;28;20549;-68
2022/07/21 14:44:40;;;;;;;9.05;7.20;;;32.10;54.40;;;;;;6329411;28;20268;-68
2022/07/21 14:47:45;;;;;;;11.57;7.63;;;31.90;55.10;;;;;;6336879;28;20269;-68
2022/07/21 14:50:51;;;;;;;9.52;7.88;;;32.20;55.10;;;;;;6319171;28;20273;-68
2022/07/21 14:53:57;;;;;;;11.57;7.40;;;32.70;54.80;;;;;;6337037;28;20396;-68
2022/07/21 14:57:04;;;;;;;8.88;7.68;;;33.20;53.10;;;;;;6336627;28;20289;-68
2022/07/21 15:00:15;;;;;;;8.30;7.43;;;33.60;53.20;;;;;;6336703;28;20269;-68
2022/07/21 15:03:21;;;;;;;8.43;7.75;;;33.40;52.70;;;;;;6336585;28;20277;-68
2022/07/21 15:06:27;;;;;;;8.55;7.75;;;33.10;54.40;;;;;;6336464;28;20449;-68
2022/07/21 15:09:32;;;;;;;10.13;7.68;;;33.00;53.30;;;;;;6336338;28;20556;-67
2022/07/21 15:12:38;;;;;;;8.45;7.75;;;32.70;55.20;;;;;;6336440;28;20289;-68
2022/07/21 15:15:45;;;;;;;10.95;8.05;;;32.60;56.90;;;;;;6336513;28;20273;-67
2022/07/21 15:18:50;;;;;;;10.48;7.60;;;32.20;57.80;;;;;;6336300;28;20269;-67
2022/07/21 15:21:55;;;;;;;10.73;7.40;;;32.00;57.10;;;;;;6336563;28;20577;-67
2022/07/21 15:25:02;;;;;;;9.85;7.50;;;32.00;58.00;;;;;;6336741;28;20273;-67
2022/07/21 15:28:09;;;;;;;8.18;7.43;;;32.10;57.20;;;;;;6335908;28;20265;-67
2022/07/21 15:31:14;;;;;;;7.90;7.20;;;32.00;60.00;;;;;;6336036;28;20278;-66
2022/07/21 15:34:20;;;;;;;10.95;7.20;;;31.90;60.00;;;;;;6336284;28;20288;-67
2022/07/21 15:37:25;;;;;;;11.15;6.68;;;31.80;58.90;;;;;;6335788;28;20316;-67
2022/07/21 15:40:32;;;;;;;10.70;7.25;;;31.70;59.70;;;;;;6336356;28;20267;-67
2022/07/21 15:43:39;;;;;;;8.15;7.38;;;31.70;61.20;;;;;;6327918;28;20309;-68
2022/07/21 15:46:45;;;;;;;7.88;7.18;;;31.70;59.70;;;;;;6335560;28;20269;-67
2022/07/21 15:49:51;;;;;;;7.25;6.65;;;31.50;58.70;;;;;;6335661;28;20270;-67
2022/07/21 15:52:56;;;;;;;9.10;6.78;;;31.50;56.90;;;;;;6335414;28;20290;-67
2022/07/21 15:56:01;;;;;;;7.10;6.40;;;31.30;56.70;;;;;;6335170;28;20278;-67
2022/07/21 16:02:30;;;;;;;8.02;6.80;;;31.30;56.70;;;;;;6335819;28;20270;-68
2022/07/21 16:05:36;;;;;;;10.63;6.57;;;31.40;55.90;;;;;;6322378;28;20286;-68
2022/07/21 16:08:41;;;;;;;10.50;6.38;;;31.30;55.90;;;;;;6310852;28;20271;-68
2022/07/21 16:11:46;;;;;;;11.18;6.38;;;31.20;56.10;;;;;;6310567;28;20274;-67
2022/07/21 16:14:53;;;;;;;8.93;6.00;;;31.10;55.60;;;;;;6310153;28;20286;-67
2022/07/21 16:17:59;;;;;;;11.35;6.65;;;31.00;56.10;;;;;;6310199;28;20266;-67
2022/07/21 16:21:04;;;;;;;7.07;6.45;;;30.90;56.10;;;;;;6310134;28;20270;-67